Time;durP1;ratioP1;P1;durP2;ratioP2;P2;SDS_P1;SDS_P2;PMS_P1;PMS_P2;Temp;Humidity;BMP_temperature;BMP_pressure;BME280_temperature;BME280_humidity;BME280_pressure;Samples;Min_cycle;Max_cycle;Signal;HPM_P1;HPM_P2
2021/08/16 00:01:42;;;;;;;11.80;6.45;;;;;;;17.40;74.31;100090.81;5020173;28;20132;-82
2021/08/16 00:04:10;;;;;;;13.30;6.18;;;;;;;17.33;74.54;100092.38;5019367;28;20042;-81
2021/08/16 00:06:37;;;;;;;10.05;5.45;;;;;;;17.33;74.28;100087.06;5002262;28;20111;-81
2021/08/16 00:09:07;;;;;;;10.43;6.13;;;;;;;17.28;74.72;100088.50;4995198;28;20679;-81
2021/08/16 00:11:35;;;;;;;10.25;5.43;;;;;;;17.29;74.94;100084.84;5026499;28;20059;-83
2021/08/16 00:14:02;;;;;;;7.78;5.50;;;;;;;17.38;74.49;100073.31;5016293;28;20061;-80
2021/08/16 00:16:31;;;;;;;14.00;6.72;;;;;;;17.25;74.88;100080.81;5017054;28;20045;-85
2021/08/16 00:18:58;;;;;;;10.25;5.90;;;;;;;17.18;75.10;100069.91;5018132;28;20073;-82
2021/08/16 00:21:25;;;;;;;9.57;5.22;;;;;;;17.13;75.66;100073.00;5023949;28;20532;-84
2021/08/16 00:23:52;;;;;;;10.68;5.68;;;;;;;17.04;75.52;100057.94;5006863;28;20045;-82
2021/08/16 00:26:20;;;;;;;12.35;6.20;;;;;;;17.01;75.34;100050.25;5034692;28;20076;-82
2021/08/16 00:28:47;;;;;;;10.60;6.05;;;;;;;17.00;75.21;100056.53;5021127;28;20079;-81
2021/08/16 00:31:14;;;;;;;8.43;5.35;;;;;;;16.95;75.38;100056.16;5037358;28;20048;-81
2021/08/16 00:33:41;;;;;;;9.82;5.30;;;;;;;16.94;75.40;100055.31;5027491;28;20057;-84
2021/08/16 00:36:08;;;;;;;7.95;5.45;;;;;;;17.14;75.48;100042.75;5024550;28;20236;-82
2021/08/16 00:38:36;;;;;;;11.13;5.20;;;;;;;17.07;75.21;100048.84;5023146;28;20049;-82
2021/08/16 00:41:03;;;;;;;11.38;5.07;;;;;;;16.97;75.65;100043.53;5035607;28;20154;-81
2021/08/16 00:43:31;;;;;;;8.10;5.28;;;;;;;17.14;75.34;100033.94;5021632;28;20053;-83
2021/08/16 00:45:59;;;;;;;8.98;5.50;;;;;;;17.09;75.37;100033.56;5030401;28;20119;-82
2021/08/16 00:48:26;;;;;;;8.07;4.97;;;;;;;16.91;75.89;100028.16;4991609;28;20052;-83
2021/08/16 00:50:53;;;;;;;7.15;4.90;;;;;;;16.84;75.93;100025.28;5031426;28;20180;-83
2021/08/16 00:53:21;;;;;;;11.43;4.72;;;;;;;16.90;75.71;100024.69;5013891;28;20147;-83
2021/08/16 00:55:49;;;;;;;8.27;5.15;;;;;;;16.89;75.96;100022.19;5021043;28;20428;-81
2021/08/16 00:58:17;;;;;;;10.23;5.78;;;;;;;16.78;76.46;100027.66;5030304;28;20045;-82
2021/08/16 01:00:44;;;;;;;9.15;5.60;;;;;;;16.76;76.52;100029.63;5005833;28;20076;-81
2021/08/16 01:03:13;;;;;;;11.43;6.13;;;;;;;16.70;77.10;100026.50;5027632;28;20115;-83
2021/08/16 01:05:40;;;;;;;9.88;5.78;;;;;;;16.62;77.58;100013.13;5026668;28;20057;-82
2021/08/16 01:08:08;;;;;;;9.73;6.35;;;;;;;16.62;77.94;100015.78;5023044;28;20143;-82
2021/08/16 01:10:35;;;;;;;12.88;6.28;;;;;;;16.71;77.37;100019.41;4996721;28;20067;-84
2021/08/16 01:13:02;;;;;;;11.00;6.00;;;;;;;16.65;77.27;100017.31;5022949;28;20041;-82
2021/08/16 01:15:33;;;;;;;15.45;6.03;;;;;;;16.71;77.20;100014.09;5032063;28;20576;-83
2021/08/16 01:18:02;;;;;;;10.75;5.72;;;;;;;16.63;76.83;100009.47;5029949;28;20060;-81
2021/08/16 01:20:29;;;;;;;8.95;5.70;;;;;;;16.60;77.35;100009.75;5026656;28;20045;-81
2021/08/16 01:22:57;;;;;;;9.93;6.13;;;;;;;16.74;77.73;100003.19;5032838;28;20519;-81
2021/08/16 01:25:24;;;;;;;11.25;6.47;;;;;;;16.74;77.82;100000.53;5035249;28;20073;-84
2021/08/16 01:27:51;;;;;;;11.70;5.65;;;;;;;16.60;77.78;99991.16;5012871;28;20124;-81
2021/08/16 01:30:19;;;;;;;10.27;5.80;;;;;;;16.52;77.96;99984.88;5017307;28;20404;-81
2021/08/16 01:32:46;;;;;;;9.85;5.78;;;;;;;16.48;77.57;99979.06;5021747;28;20118;-83
2021/08/16 01:35:14;;;;;;;8.77;6.15;;;;;;;16.46;77.44;99981.00;5031133;28;20053;-82
2021/08/16 01:37:42;;;;;;;8.95;5.85;;;;;;;16.46;77.67;99979.19;5019779;28;20499;-82
2021/08/16 01:40:12;;;;;;;14.13;5.57;;;;;;;16.41;77.41;99968.16;5035810;28;20085;-83
2021/08/16 01:42:40;;;;;;;13.90;4.97;;;;;;;16.64;78.26;99975.78;5007227;28;20099;-82
2021/08/16 01:45:08;;;;;;;8.45;6.05;;;;;;;16.58;78.13;99973.72;5023447;28;20056;-82
2021/08/16 01:47:35;;;;;;;10.45;5.18;;;;;;;16.48;78.19;99964.91;4997422;28;20469;-83
2021/08/16 01:50:03;;;;;;;13.40;5.97;;;;;;;16.37;78.43;99961.44;5021443;28;20501;-83
2021/08/16 01:52:30;;;;;;;7.95;5.25;;;;;;;16.34;78.34;99956.41;5018932;28;20568;-82
2021/08/16 01:54:57;;;;;;;7.45;5.03;;;;;;;16.42;78.29;99956.53;5020091;28;20321;-83
2021/08/16 01:57:24;;;;;;;8.85;5.40;;;;;;;16.40;78.76;99947.88;5022471;28;20160;-83
2021/08/16 01:59:51;;;;;;;6.97;4.85;;;;;;;16.37;78.89;99934.03;5026416;28;20069;-83
2021/08/16 02:02:18;;;;;;;10.05;5.50;;;;;;;16.30;78.80;99938.25;5024176;28;20519;-81
2021/08/16 02:04:47;;;;;;;8.50;4.82;;;;;;;16.30;78.89;99927.63;5019795;28;20053;-82
2021/08/16 02:07:15;;;;;;;9.15;4.75;;;;;;;16.26;79.01;99923.59;5024656;28;20145;-82
2021/08/16 02:09:42;;;;;;;8.40;4.78;;;;;;;16.19;79.19;99925.97;5017136;28;20068;-84
2021/08/16 02:12:09;;;;;;;11.68;5.18;;;;;;;16.14;79.52;99917.63;5029446;28;20103;-84
2021/08/16 02:14:37;;;;;;;9.77;5.45;;;;;;;16.15;79.31;99919.28;5024523;28;20133;-82
2021/08/16 02:17:04;;;;;;;6.88;5.00;;;;;;;16.13;79.11;99906.16;5031354;28;20045;-83
2021/08/16 02:19:36;;;;;;;11.05;5.70;;;;;;;16.12;79.37;99914.25;5018539;28;20092;-84
2021/08/16 02:22:03;;;;;;;7.82;5.25;;;;;;;16.16;79.79;99907.66;5020941;28;20096;-83
2021/08/16 02:24:30;;;;;;;9.10;4.82;;;;;;;16.16;79.38;99905.84;5021616;28;20099;-82
2021/08/16 02:26:57;;;;;;;9.13;4.70;;;;;;;16.13;79.97;99903.50;5030853;28;20371;-84
2021/08/16 02:29:25;;;;;;;9.77;5.90;;;;;;;16.19;79.69;99902.91;5014587;28;20052;-83
2021/08/16 02:31:52;;;;;;;16.02;4.75;;;;;;;16.29;79.01;99904.72;5021024;28;20084;-83
2021/08/16 02:34:19;;;;;;;7.03;4.40;;;;;;;16.26;78.98;99905.00;5009896;28;20409;-85
2021/08/16 02:36:46;;;;;;;10.43;4.97;;;;;;;16.23;79.21;99905.28;5032703;28;20053;-83
2021/08/16 02:39:14;;;;;;;9.63;5.65;;;;;;;16.20;79.27;99898.44;5030632;28;20145;-81
2021/08/16 02:41:41;;;;;;;7.30;4.68;;;;;;;16.20;79.52;99896.63;5027096;28;20080;-83
2021/08/16 02:44:08;;;;;;;7.00;4.53;;;;;;;16.18;79.50;99890.63;5030122;28;20057;-83
2021/08/16 02:46:35;;;;;;;9.40;4.72;;;;;;;16.27;78.95;99888.09;5039010;28;20115;-83
2021/08/16 02:49:03;;;;;;;7.95;4.72;;;;;;;16.46;78.13;99888.00;5011055;28;20064;-84
2021/08/16 02:51:30;;;;;;;8.05;4.65;;;;;;;16.57;77.31;99890.50;5001796;28;20077;-83
2021/08/16 02:53:58;;;;;;;9.45;4.53;;;;;;;16.44;77.44;99892.66;5023834;28;20107;-83
2021/08/16 02:56:25;;;;;;;12.13;5.00;;;;;;;16.44;77.87;99882.03;5036225;28;20154;-83
2021/08/16 02:58:52;;;;;;;8.07;4.38;;;;;;;16.38;78.16;99880.75;5009490;28;20076;-83
2021/08/16 03:01:19;;;;;;;8.52;4.72;;;;;;;16.47;77.64;99876.41;5018215;28;20069;-81
2021/08/16 03:03:47;;;;;;;11.15;4.68;;;;;;;16.59;77.04;99877.88;5051833;28;20365;-81
2021/08/16 03:06:14;;;;;;;9.13;4.00;;;;;;;16.79;75.83;99877.81;5031114;28;20046;-83
2021/08/16 03:08:41;;;;;;;7.82;4.57;;;;;;;16.83;75.97;99863.25;5042142;28;20160;-82
2021/08/16 03:11:09;;;;;;;7.60;4.03;;;;;;;16.70;75.95;99867.03;5038102;28;20053;-82
2021/08/16 03:13:36;;;;;;;8.05;4.82;;;;;;;16.59;76.39;99875.22;5017862;28;20101;-82
2021/08/16 03:16:03;;;;;;;7.57;4.75;;;;;;;16.66;76.30;99867.50;5028951;28;20376;-81
2021/08/16 03:18:31;;;;;;;7.65;3.90;;;;;;;16.65;76.46;99868.47;5018489;28;20066;-84
2021/08/16 03:20:58;;;;;;;6.72;4.45;;;;;;;16.59;76.61;99861.09;5028141;28;20049;-82
2021/08/16 03:23:27;;;;;;;9.00;4.38;;;;;;;16.62;76.26;99860.81;5030273;28;20058;-83
2021/08/16 03:25:55;;;;;;;6.10;4.07;;;;;;;16.60;76.35;99860.94;5031248;28;20057;-82
2021/08/16 03:28:23;;;;;;;12.02;3.88;;;;;;;16.60;76.67;99852.16;5036468;28;20141;-81
2021/08/16 03:30:50;;;;;;;8.80;4.38;;;;;;;16.58;76.45;99862.94;5022491;28;20153;-83
2021/08/16 03:33:17;;;;;;;6.45;4.15;;;;;;;16.57;76.63;99855.94;5013804;28;20045;-82
2021/08/16 03:35:44;;;;;;;8.80;3.88;;;;;;;16.50;77.04;99857.50;5048296;28;20085;-82
2021/08/16 03:38:12;;;;;;;8.93;5.00;;;;;;;16.43;76.91;99843.97;5032231;28;20420;-81
2021/08/16 03:40:39;;;;;;;7.25;4.70;;;;;;;16.42;77.13;99846.78;5023592;28;20053;-80
2021/08/16 03:43:09;;;;;;;8.60;4.18;;;;;;;16.40;77.17;99843.44;5033322;28;20041;-82
2021/08/16 03:45:36;;;;;;;8.82;4.60;;;;;;;16.37;77.37;99846.38;4994731;28;20053;-84
2021/08/16 03:48:04;;;;;;;9.32;3.90;;;;;;;16.41;77.53;99843.28;5005337;28;20400;-80
2021/08/16 03:50:31;;;;;;;6.90;4.43;;;;;;;16.45;77.34;99834.03;5004599;28;20094;-81
2021/08/16 03:52:58;;;;;;;21.77;4.75;;;;;;;16.59;76.85;99832.72;5033972;28;20095;-82
2021/08/16 03:55:25;;;;;;;6.32;4.32;;;;;;;16.57;76.88;99826.72;5034434;28;20057;-83
2021/08/16 03:57:52;;;;;;;8.13;3.67;;;;;;;16.60;76.95;99833.53;5034175;28;20221;-82
2021/08/16 04:00:20;;;;;;;6.60;4.20;;;;;;;16.61;76.76;99836.03;5031765;28;20111;-82
2021/08/16 04:02:48;;;;;;;12.98;4.20;;;;;;;16.69;76.10;99830.00;5024355;28;20142;-82
2021/08/16 04:05:15;;;;;;;10.98;5.60;;;;;;;16.80;75.89;99831.66;5032057;28;20050;-83
2021/08/16 04:07:44;;;;;;;7.15;4.30;;;;;;;16.99;74.53;99833.34;5019998;28;20165;-84
2021/08/16 04:10:12;;;;;;;9.73;4.95;;;;;;;17.14;74.27;99827.34;5023937;28;20065;-81
2021/08/16 04:12:40;;;;;;;7.72;3.65;;;;;;;17.31;73.60;99828.31;5029672;28;20101;-80
2021/08/16 04:15:09;;;;;;;7.25;3.97;;;;;;;17.69;71.50;99821.78;5028814;28;20072;-84
2021/08/16 04:17:37;;;;;;;9.25;4.15;;;;;;;17.84;70.77;99821.28;5005608;28;20045;-83
2021/08/16 04:20:05;;;;;;;7.78;3.90;;;;;;;18.04;70.40;99812.06;5025527;28;20054;-87
2021/08/16 04:22:32;;;;;;;10.30;4.30;;;;;;;18.36;69.14;99819.38;5021535;28;20129;-84
2021/08/16 04:25:03;;;;;;;8.57;4.47;;;;;;;18.66;67.26;99822.50;5028967;28;20056;-88
2021/08/16 04:27:31;;;;;;;7.60;4.63;;;;;;;18.88;66.84;99815.75;4991747;28;20053;-86
2021/08/16 04:29:58;;;;;;;8.68;4.18;;;;;;;19.05;65.72;99822.78;5026823;28;20067;-88
2021/08/16 04:32:26;;;;;;;8.57;3.97;;;;;;;19.10;65.88;99824.97;5015443;28;20054;-88
2021/08/16 04:34:53;;;;;;;10.73;5.10;;;;;;;18.77;66.77;99829.38;5038245;28;20145;-89
2021/08/16 04:37:20;;;;;;;10.48;4.65;;;;;;;18.72;66.89;99837.88;5028426;28;20089;-83
2021/08/16 04:39:48;;;;;;;8.10;4.18;;;;;;;18.82;65.86;99851.91;5024076;28;20103;-81
2021/08/16 04:42:15;;;;;;;9.77;4.15;;;;;;;18.79;66.02;99852.22;5028113;28;20088;-85
2021/08/16 04:44:42;;;;;;;9.45;4.55;;;;;;;18.83;66.23;99853.59;5028394;28;20652;-87
2021/08/16 04:47:09;;;;;;;8.00;4.43;;;;;;;19.04;65.48;99849.63;5032339;28;20420;-85
2021/08/16 04:49:36;;;;;;;11.85;4.28;;;;;;;18.93;65.86;99846.25;5022230;28;20084;-82
2021/08/16 04:52:04;;;;;;;10.98;4.88;;;;;;;19.09;65.34;99848.16;5029404;28;20121;-81
2021/08/16 04:54:31;;;;;;;10.75;4.32;;;;;;;19.21;64.96;99862.00;5027096;28;20041;-82
2021/08/16 04:56:58;;;;;;;8.43;4.40;;;;;;;19.52;63.43;99862.19;5041522;28;20504;-90
2021/08/16 04:59:26;;;;;;;6.40;3.50;;;;;;;19.81;62.58;99863.53;5037429;28;20051;-86
2021/08/16 05:01:53;;;;;;;21.48;5.07;;;;;;;19.80;62.52;99862.69;5038119;28;20046;-87
2021/08/16 05:04:21;;;;;;;10.40;4.20;;;;;;;19.67;62.96;99865.03;5026312;28;20090;-84
2021/08/16 05:06:48;;;;;;;12.73;4.28;;;;;;;19.62;63.48;99870.06;5009392;28;20137;-85
2021/08/16 05:09:15;;;;;;;8.77;4.05;;;;;;;19.92;62.51;99873.88;5031808;28;20042;-87
2021/08/16 05:11:47;;;;;;;11.80;4.25;;;;;;;21.29;58.58;99868.16;5022841;28;20173;-87
2021/08/16 05:14:16;;;;;;;14.52;5.35;;;;;;;22.86;52.60;99869.97;5033955;28;20105;-80
2021/08/16 05:16:46;;;;;;;11.55;4.72;;;;;;;23.87;50.04;99867.31;5023656;28;20056;-81
2021/08/16 05:19:14;;;;;;;9.95;3.95;;;;;;;24.33;48.46;99864.94;5022589;28;20460;-79
2021/08/16 05:21:42;;;;;;;9.52;3.72;;;;;;;25.16;46.58;99856.81;5021364;28;20559;-80
2021/08/16 05:24:09;;;;;;;8.38;3.78;;;;;;;25.15;45.76;99868.63;5020143;28;20508;-80
2021/08/16 05:26:37;;;;;;;7.40;4.03;;;;;;;25.00;45.89;99874.16;4984126;28;20132;-80
2021/08/16 05:29:04;;;;;;;5.85;3.58;;;;;;;25.08;45.73;99862.38;5033253;28;20373;-78
2021/08/16 05:31:31;;;;;;;11.20;3.85;;;;;;;24.22;47.74;99874.34;5016469;28;20093;-80
2021/08/16 05:33:59;;;;;;;13.48;4.15;;;;;;;23.80;48.92;99874.47;5003970;28;20415;-80
2021/08/16 05:36:26;;;;;;;12.80;3.95;;;;;;;23.14;50.77;99875.47;5019207;28;20604;-80
2021/08/16 05:38:53;;;;;;;8.18;4.28;;;;;;;23.00;51.62;99873.66;5017733;28;20132;-81
2021/08/16 05:41:20;;;;;;;6.68;4.07;;;;;;;22.94;52.09;99874.44;5026188;28;20124;-79
2021/08/16 05:43:48;;;;;;;11.65;4.15;;;;;;;22.83;52.58;99870.38;5039980;28;20080;-80
2021/08/16 05:46:15;;;;;;;14.35;4.07;;;;;;;22.78;52.87;99871.94;5040780;28;20103;-80
2021/08/16 05:48:42;;;;;;;11.18;3.70;;;;;;;23.22;51.42;99877.22;5043529;28;20616;-81
2021/08/16 05:51:09;;;;;;;13.50;4.55;;;;;;;24.30;49.28;99868.00;5034678;28;20053;-81
2021/08/16 05:53:37;;;;;;;9.70;3.63;;;;;;;25.55;46.58;99869.53;5019222;28;20581;-82
2021/08/16 05:56:05;;;;;;;6.75;3.65;;;;;;;25.65;45.89;99869.94;5031734;28;20398;-83
2021/08/16 05:58:32;;;;;;;9.52;4.05;;;;;;;26.46;44.02;99879.66;4995382;28;20467;-80
2021/08/16 06:01:00;;;;;;;8.60;3.80;;;;;;;26.63;43.07;99872.75;5004205;28;20493;-80
2021/08/16 06:03:27;;;;;;;18.75;4.30;;;;;;;25.56;44.79;99876.56;5023210;28;20080;-79
2021/08/16 06:05:54;;;;;;;7.22;4.00;;;;;;;24.45;47.98;99874.13;5022975;28;20540;-86
2021/08/16 06:08:23;;;;;;;12.95;4.07;;;;;;;24.06;48.83;99874.69;5028117;28;20604;-82
2021/08/16 06:10:50;;;;;;;11.68;3.63;;;;;;;23.65;50.48;99870.03;5028090;28;20882;-83
2021/08/16 06:13:17;;;;;;;15.52;4.03;;;;;;;22.89;52.37;99880.38;5015441;28;20171;-83
2021/08/16 06:15:44;;;;;;;9.35;3.13;;;;;;;22.54;53.65;99879.25;5034131;28;20111;-83
2021/08/16 06:18:12;;;;;;;8.75;3.28;;;;;;;22.66;53.10;99880.47;5029824;28;20076;-84
2021/08/16 06:20:39;;;;;;;9.23;3.47;;;;;;;22.83;53.19;99874.88;5019802;28;20446;-84
2021/08/16 06:23:06;;;;;;;10.55;3.50;;;;;;;23.67;50.51;99872.50;5024630;28;20054;-84
2021/08/16 06:25:33;;;;;;;15.93;3.70;;;;;;;23.32;51.26;99868.84;5028056;28;20139;-83
2021/08/16 06:28:01;;;;;;;10.63;4.00;;;;;;;23.40;51.47;99874.09;4984053;28;20057;-82
2021/08/16 06:30:31;;;;;;;9.80;3.88;;;;;;;23.30;51.53;99871.72;5046606;28;20053;-84
2021/08/16 06:33:01;;;;;;;9.18;3.83;;;;;;;22.74;53.07;99883.06;5044073;28;20049;-83
2021/08/16 06:38:26;;;;;;;13.65;3.40;;;;;;;22.22;55.59;99899.25;5017028;28;20143;-80
2021/08/16 06:40:55;;;;;;;11.80;3.50;;;;;;;22.74;53.88;99893.78;5014800;28;20079;-80
2021/08/16 06:43:25;;;;;;;7.18;3.53;;;;;;;22.92;53.45;99888.06;5034728;28;20459;-87
2021/08/16 06:45:52;;;;;;;7.40;3.63;;;;;;;23.28;52.37;99884.53;5025297;28;20046;-82
2021/08/16 06:48:20;;;;;;;14.55;4.57;;;;;;;23.44;52.22;99897.69;5023612;28;20054;-82
2021/08/16 06:50:47;;;;;;;13.98;4.50;;;;;;;22.89;53.56;99891.09;5006399;28;20143;-83
2021/08/16 06:53:15;;;;;;;12.85;4.00;;;;;;;22.86;54.40;99883.38;4990804;28;20095;-83
2021/08/16 06:55:45;;;;;;;14.48;5.22;;;;;;;23.00;54.25;99887.09;5026600;28;20140;-81
2021/08/16 06:58:12;;;;;;;13.55;3.67;;;;;;;24.11;51.30;99898.28;5018840;28;20055;-81
2021/08/16 07:00:42;;;;;;;11.48;4.03;;;;;;;24.92;49.34;99903.94;5029851;28;20097;-81
2021/08/16 07:03:16;;;;;;;7.60;4.32;;;;;;;24.57;49.72;99898.59;5013131;28;20088;-81
2021/08/16 07:05:48;;;;;;;11.30;3.88;;;;;;;25.14;48.85;99894.75;5011482;28;20084;-81
2021/08/16 07:08:15;;;;;;;13.20;4.22;;;;;;;26.46;45.45;99891.28;5019537;28;20061;-82
2021/08/16 07:10:43;;;;;;;8.93;4.43;;;;;;;25.82;47.42;99891.13;5019117;28;20127;-81
2021/08/16 07:13:10;;;;;;;8.20;3.47;;;;;;;26.67;44.93;99884.78;5020317;28;20045;-81
2021/08/16 07:15:38;;;;;;;10.55;3.53;;;;;;;26.31;46.00;99896.06;5020485;28;20085;-81
2021/08/16 07:18:05;;;;;;;7.70;3.35;;;;;;;26.46;45.45;99890.44;5020452;28;20149;-80
2021/08/16 07:20:33;;;;;;;12.75;4.43;;;;;;;26.63;45.88;99880.84;5024422;28;20123;-81
2021/08/16 07:23:00;;;;;;;6.70;4.10;;;;;;;26.65;45.49;99877.94;4990783;28;20421;-81
2021/08/16 07:25:28;;;;;;;6.13;3.13;;;;;;;27.76;43.45;99880.25;5026541;28;20104;-81
2021/08/16 07:27:55;;;;;;;9.25;3.90;;;;;;;27.57;43.24;99878.50;5023312;28;20114;-80
2021/08/16 07:30:22;;;;;;;8.50;3.92;;;;;;;28.68;41.03;99873.06;5011991;28;20132;-81
2021/08/16 07:32:50;;;;;;;7.82;3.78;;;;;;;31.15;36.65;99868.69;5031038;28;20362;-81
2021/08/16 07:35:17;;;;;;;8.50;4.00;;;;;;;30.90;36.89;99887.25;5026308;28;20103;-84
2021/08/16 07:37:45;;;;;;;6.55;3.97;;;;;;;30.10;38.25;99882.50;5027452;28;20049;-81
2021/08/16 07:40:13;;;;;;;15.00;4.00;;;;;;;30.07;37.45;99881.06;5027950;28;20050;-81
2021/08/16 07:42:40;;;;;;;6.85;3.65;;;;;;;28.74;40.33;99877.59;5001200;28;20115;-80
2021/08/16 07:45:08;;;;;;;7.57;4.05;;;;;;;31.01;36.97;99872.78;5024067;28;20124;-81
2021/08/16 07:47:35;;;;;;;9.05;3.90;;;;;;;32.40;34.02;99882.22;5013762;28;20041;-82
2021/08/16 07:50:07;;;;;;;10.40;3.50;;;;;;;30.51;36.59;99889.69;5031666;28;20690;-81
2021/08/16 07:52:35;;;;;;;10.88;3.95;;;;;;;30.41;37.24;99892.19;5007852;28;20045;-76
2021/08/16 07:55:04;;;;;;;9.68;4.10;;;;;;;31.71;35.08;99883.31;5038115;28;20104;-80
2021/08/16 07:57:31;;;;;;;9.65;3.33;;;;;;;34.27;30.90;99895.31;5041703;28;20057;-80
2021/08/16 08:00:00;;;;;;;13.82;3.83;;;;;;;34.32;30.23;99898.06;5026151;28;20053;-78
2021/08/16 08:02:44;;;;;;;10.02;3.45;;;;;;;34.79;29.38;99913.63;5022496;28;20176;-80
2021/08/16 08:05:14;;;;;;;8.70;4.22;;;;;;;32.77;32.51;99899.59;5000702;28;20053;-79
2021/08/16 08:07:42;;;;;;;6.78;4.35;;;;;;;32.95;32.51;99903.09;5028201;28;20042;-80
2021/08/16 08:10:10;;;;;;;9.25;3.83;;;;;;;33.34;32.02;99908.44;5028161;28;20136;-80
2021/08/16 08:12:38;;;;;;;9.27;4.88;;;;;;;32.66;32.99;99913.34;5022847;28;20076;-80
2021/08/16 08:15:06;;;;;;;12.82;4.45;;;;;;;30.20;37.00;99909.91;5015850;28;20080;-80
2021/08/16 08:17:34;;;;;;;14.73;5.10;;;;;;;31.79;34.43;99909.28;5026452;28;20045;-79
2021/08/16 08:20:04;;;;;;;9.82;4.50;;;;;;;30.63;36.17;99914.94;5027980;28;20484;-79
2021/08/16 08:22:33;;;;;;;13.82;4.93;;;;;;;29.20;38.29;99921.44;5015465;28;20396;-79
2021/08/16 08:25:02;;;;;;;10.95;4.70;;;;;;;31.74;34.35;99920.91;5030215;28;20038;-78
2021/08/16 08:27:30;;;;;;;7.22;4.25;;;;;;;31.34;34.07;99914.75;5016305;28;20092;-79
2021/08/16 08:29:57;;;;;;;18.02;5.15;;;;;;;31.27;33.50;99910.31;5030626;28;20029;-79
2021/08/16 08:32:25;;;;;;;9.15;4.53;;;;;;;32.37;31.92;99923.53;5031061;28;20108;-79
2021/08/16 08:34:53;;;;;;;12.75;4.65;;;;;;;30.10;35.36;99918.59;4986815;28;20520;-81
2021/08/16 08:37:20;;;;;;;11.85;5.35;;;;;;;32.79;31.35;99917.59;5026572;28;20264;-80
2021/08/16 08:39:47;;;;;;;8.10;4.32;;;;;;;33.00;30.67;99911.31;4997836;28;20061;-80
2021/08/16 08:42:15;;;;;;;14.50;4.35;;;;;;;30.75;34.05;99920.38;5023339;28;20059;-79
2021/08/16 08:44:43;;;;;;;11.32;4.78;;;;;;;29.66;36.10;99912.66;5029173;28;20160;-81
2021/08/16 08:47:11;;;;;;;7.68;4.28;;;;;;;27.48;38.78;99919.31;5027389;28;20104;-79
2021/08/16 08:49:40;;;;;;;10.20;5.13;;;;;;;26.31;41.22;99924.94;5027664;28;20072;-80
2021/08/16 08:52:08;;;;;;;8.82;4.72;;;;;;;26.84;41.02;99919.41;5024648;28;20096;-80
2021/08/16 08:54:36;;;;;;;9.88;5.32;;;;;;;27.00;40.77;99917.03;5011157;28;20061;-77
2021/08/16 08:57:30;;;;;;;13.43;5.13;;;;;;;27.27;40.75;99928.59;5006857;28;20061;-78
2021/08/16 08:59:58;;;;;;;12.68;5.95;;;;;;;27.40;40.29;99924.16;5006219;28;20109;-79
2021/08/16 09:02:25;;;;;;;11.40;5.32;;;;;;;27.35;40.10;99922.09;5030356;28;20491;-85
2021/08/16 09:04:54;;;;;;;13.02;5.35;;;;;;;26.64;40.66;99932.97;5032841;28;20161;-81
2021/08/16 09:07:39;;;;;;;8.32;4.20;;;;;;;26.10;41.69;99923.28;5012938;28;20084;-81
2021/08/16 09:10:12;;;;;;;11.75;4.22;;;;;;;25.05;43.59;99922.03;5003975;28;20057;-81
2021/08/16 09:12:39;;;;;;;15.15;4.30;;;;;;;25.21;43.96;99930.59;5010079;28;20060;-80
2021/08/16 09:16:00;;;;;;;7.25;3.95;;;;;;;25.95;42.91;99926.19;5023102;28;20052;-84
2021/08/16 09:18:30;;;;;;;8.05;4.03;;;;;;;25.92;42.28;99937.38;5031034;28;20067;-84
2021/08/16 09:21:00;;;;;;;9.77;3.78;;;;;;;26.01;42.24;99941.53;5019479;28;20096;-82
2021/08/16 09:23:29;;;;;;;13.75;5.13;;;;;;;25.67;42.77;99940.66;5021553;28;20041;-86
2021/08/16 09:25:57;;;;;;;7.18;4.10;;;;;;;25.07;43.64;99933.41;4999910;28;20172;-81
2021/08/16 09:28:27;;;;;;;9.52;4.38;;;;;;;24.64;43.51;99953.31;5007269;28;20065;-81
2021/08/16 09:30:55;;;;;;;8.30;4.50;;;;;;;25.00;43.15;99950.38;5025625;28;20148;-83
2021/08/16 09:33:23;;;;;;;14.30;4.28;;;;;;;25.27;42.50;99949.69;5032747;28;20125;-81
2021/08/16 09:35:59;;;;;;;13.65;3.92;;;;;;;25.06;42.68;99945.22;5017446;28;20046;-81
2021/08/16 09:38:41;;;;;;;12.57;5.20;;;;;;;25.24;42.77;99949.03;5029070;28;20125;-81
2021/08/16 09:41:25;;;;;;;8.90;3.60;;;;;;;25.58;42.47;99939.19;5039284;28;20033;-82
2021/08/16 09:43:53;;;;;;;6.45;4.15;;;;;;;25.72;41.91;99948.13;5019327;28;20044;-84
2021/08/16 09:46:31;;;;;;;17.65;4.72;;;;;;;25.64;41.59;99937.53;5028709;28;20041;-82
2021/08/16 09:48:59;;;;;;;15.63;3.33;;;;;;;25.68;41.61;99936.94;5027667;28;20033;-83
2021/08/16 09:51:29;;;;;;;7.68;3.22;;;;;;;25.85;41.68;99950.03;5014757;28;20088;-84
2021/08/16 09:53:59;;;;;;;7.10;3.83;;;;;;;26.21;40.43;99947.75;4999548;28;20164;-82
2021/08/16 09:56:28;;;;;;;8.88;4.03;;;;;;;26.22;39.72;99935.94;5008893;28;20049;-84
2021/08/16 09:59:00;;;;;;;10.95;3.10;;;;;;;25.42;40.91;99936.88;5023111;28;20061;-82
2021/08/16 10:01:28;;;;;;;8.70;3.88;;;;;;;25.14;41.50;99937.00;5027806;28;20467;-80
2021/08/16 10:03:56;;;;;;;16.60;4.03;;;;;;;25.47;40.77;99943.31;5013273;28;20148;-82
2021/08/16 10:06:25;;;;;;;11.35;3.75;;;;;;;25.86;41.31;99933.66;5012030;28;20076;-82
2021/08/16 10:08:53;;;;;;;9.57;3.10;;;;;;;26.04;41.21;99935.75;5003995;28;20073;-80
2021/08/16 10:11:24;;;;;;;12.27;3.15;;;;;;;26.43;40.22;99945.69;5024015;28;20101;-83
2021/08/16 10:13:53;;;;;;;6.13;3.65;;;;;;;26.40;39.56;99934.47;5027724;28;20054;-81
2021/08/16 10:16:32;;;;;;;8.48;3.40;;;;;;;26.19;40.49;99936.34;5006640;28;20057;-85
2021/08/16 10:19:00;;;;;;;10.57;2.97;;;;;;;25.83;39.33;99942.16;5017986;28;20528;-82
2021/08/16 10:21:28;;;;;;;12.65;3.60;;;;;;;25.30;39.63;99925.03;4992422;28;20047;-81
2021/08/16 10:23:55;;;;;;;10.27;3.22;;;;;;;24.96;40.66;99938.34;5001400;28;20394;-81
2021/08/16 10:26:26;;;;;;;11.75;3.20;;;;;;;25.17;40.50;99936.59;5025287;28;20056;-82
2021/08/16 10:29:01;;;;;;;11.20;2.97;;;;;;;25.08;40.44;99935.09;4991837;28;20053;-80
2021/08/16 10:31:36;;;;;;;15.90;3.15;;;;;;;25.66;39.07;99936.28;5031137;28;20069;-82
2021/08/16 10:34:04;;;;;;;24.52;3.92;;;;;;;25.97;38.56;99929.50;5002327;28;20068;-83
2021/08/16 10:37:01;;;;;;;10.32;3.40;;;;;;;25.60;39.33;99922.81;5034489;28;20049;-80
2021/08/16 10:39:53;;;;;;;11.27;2.90;;;;;;;25.93;38.33;99920.97;5031706;28;20504;-79
2021/08/16 10:42:53;;;;;;;11.80;3.10;;;;;;;26.00;38.42;99918.31;5004167;28;20530;-80
2021/08/16 10:45:27;;;;;;;8.90;3.22;;;;;;;25.98;37.77;99923.91;4994885;28;20061;-80
2021/08/16 10:48:06;;;;;;;11.70;3.28;;;;;;;25.85;37.51;99905.03;5021228;28;20057;-81
2021/08/16 10:50:36;;;;;;;7.32;2.80;;;;;;;25.50;38.77;99898.97;5012223;28;20059;-80
2021/08/16 10:53:08;;;;;;;7.25;3.38;;;;;;;25.51;38.90;99897.91;5002973;28;20062;-81
2021/08/16 10:55:47;;;;;;;12.93;2.78;;;;;;;25.69;38.53;99908.09;5021783;28;20045;-80
2021/08/16 10:58:21;;;;;;;10.38;3.08;;;;;;;25.77;37.97;99897.16;5003971;28;20128;-78
2021/08/16 11:00:56;;;;;;;8.27;2.75;;;;;;;26.06;37.66;99893.19;5004428;28;20108;-79
2021/08/16 11:03:25;;;;;;;10.82;2.67;;;;;;;26.02;37.41;99881.16;5005346;28;20501;-80
2021/08/16 11:05:55;;;;;;;7.00;2.40;;;;;;;26.13;37.56;99888.63;5027484;28;20054;-80
2021/08/16 11:08:29;;;;;;;9.25;2.85;;;;;;;26.26;37.54;99882.38;5012310;28;20050;-82
2021/08/16 11:11:04;;;;;;;6.60;2.80;;;;;;;26.29;37.75;99887.34;5026060;28;20571;-80
2021/08/16 11:13:34;;;;;;;6.32;2.85;;;;;;;26.44;37.31;99887.16;4994470;28;20050;-82
2021/08/16 11:16:07;;;;;;;3.95;2.60;;;;;;;26.32;37.75;99876.13;5024858;28;20065;-79
2021/08/16 11:18:36;;;;;;;7.45;2.78;;;;;;;26.79;36.93;99870.59;5009793;28;20092;-81
2021/08/16 11:21:06;;;;;;;11.75;3.72;;;;;;;26.62;37.55;99875.69;5034375;28;20095;-80
2021/08/16 11:23:35;;;;;;;4.88;2.70;;;;;;;26.54;36.86;99879.44;5037619;28;20129;-81
2021/08/16 11:26:03;;;;;;;6.18;2.88;;;;;;;26.12;37.74;99878.88;5013957;28;20109;-81
2021/08/16 11:28:32;;;;;;;8.32;2.70;;;;;;;25.71;38.08;99874.53;5029053;28;20405;-79
2021/08/16 11:31:06;;;;;;;9.98;2.80;;;;;;;25.82;38.31;99880.34;5008444;28;20050;-82
2021/08/16 11:33:35;;;;;;;5.78;2.83;;;;;;;25.88;38.49;99869.53;4996012;28;20053;-80
2021/08/16 11:36:11;;;;;;;7.00;3.20;;;;;;;25.86;37.67;99863.53;5042820;28;20369;-80
2021/08/16 11:38:42;;;;;;;13.15;3.53;;;;;;;25.86;37.68;99863.53;5015769;28;20084;-78
2021/08/16 11:41:14;;;;;;;5.18;2.30;;;;;;;25.95;37.53;99854.19;5016960;28;20144;-82